Řízení letového provozu České republiky  
Aktualizace dat:  18.12.2018 17:49:07 UTC English version
   METEO Zobrazení stránky:  18.12.2018 17:49:24 UTC  
vysvětlivky
METAR EDDB 181720Z 14006KT CAVOK 02/02 Q1025 NOSIG=
METAR EDDC 181720Z 15011KT 8000 BKN003 01/01 Q1025 TEMPO SCT003=
METAR EDDE 181720Z 17004KT CAVOK 02/M01 Q1022 NOSIG=
METAR EDDF 181720Z 07008KT 9999 FEW016 03/02 Q1020 NOSIG=
METAR EDDM 181720Z 08008KT 040V100 1700 BCFG FEW001 OVC002 01/01 Q1023 TEMPO 0500 FG=
METAR EDDN 181720Z 13011KT 9999 BKN008 02/01 Q1023 NOSIG=
METAR EDDP 181720Z 16007KT 9999 FEW032 02/00 Q1023 NOSIG=
METAR EDDT 181720Z 15005KT CAVOK 04/03 Q1024 NOSIG=
METAR EDQM 181720Z 17005KT 120V200 9999 FEW009 OVC015 01/M00 Q1022=
METAR EPBY 181730Z 11007KT 1800 BR OVC003 00/M01 Q1027 =
METAR EPGD 181730Z 15007KT 3700 BR BKN003 OVC005 M02/M03 Q1027 R11/190095 =
METAR EPKK 181730Z 03006KT 2000 BR NSC M01/M02 Q1028 =
METAR EPKT 181730Z 09004KT 1800 BR FEW037 BKN046 M01/M02 Q1027 =
METAR EPLL 181730Z 10004KT 1000 R25/2000N BR NSC M01/M02 Q1027 =
METAR EPPO 181730Z 17004KT 2000 BR OVC006 02/02 Q1026 =
METAR EPRZ 181730Z 06003KT 5000 BR OVC020 M01/M03 Q1029 =
METAR EPWA 181730Z 13004KT 5000 BR BKN035 M00/M02 Q1029 NOSIG=
METAR EPWR 181730Z 12007KT 9999 SCT017 02/00 Q1027 =
METAR LHBP 181730Z VRB01KT 1800 FZBCFG NSC M06/M06 Q1029 BECMG 0500 FZFG=
METAR LHSM NIL
SPECI LKBC 181739Z AUTO 09002KT 0400 FZFG NCD M01/M02 Q1023=
METAR LKCV 181700Z 13006KT 9999 BKN015 02/01 Q1026 NOSIG RMK WHT WHT=
METAR LKKB 181700Z 05003KT 0400 R24/0750U SCT002 M01/M01 Q1025 NOSIG RMK RED RED=
METAR LKKU NIL
METAR LKKV 181730Z 12004KT 9999 BKN011 M00/M01 Q1023 R29/////// RMK REG QNH 1021=
METAR LKLN 181730Z AUTO VRB01KT 7000 NCD M00/M00 Q1025=
METAR LKMT 181730Z 24004KT 4000 BR OVC038 01/M01 Q1027 NOSIG RMK REG QNH 1021=
METAR LKNA 181700Z 10003KT 060V120 7000 SCT009 BKN014 01/M00 Q1026 NOSIG RMK GRN GRN=
METAR LKPD 181700Z 10004KT 9999 SCT013 OVC020 02/01 Q1026 NOSIG RMK WHT WHT=
METAR LKPR 181730Z 11004KT 8000 NSC M00/M01 Q1025 NOSIG RMK REG QNH 1021=
METAR LKTB 181730Z 14002KT 4000 BR OVC021 00/M01 Q1028 NOSIG RMK REG QNH 1021=
METAR LKVO NIL
METAR LOWI 181720Z 24003KT 200V270 CAVOK M03/M06 Q1024 NOSIG=
METAR LOWL 181720Z 10005KT 9999 FEW007 00/M00 Q1025 NOSIG=
METAR LOWS 181720Z 13004KT CAVOK 00/M03 Q1023 NOSIG=
METAR LOWW 181720Z 21004KT 7000 FEW120 01/M01 Q1028 BECMG 3000 BR=
METAR LZIB 181730Z 03004KT 3200 BR SCT009 M01/M02 Q1028 R04/710695 R13/15//95 BECMG 2500 BR BKN009=
METAR LZKZ 181730Z 03004KT CAVOK M01/M03 Q1028=
METAR LZMC 181700Z 00000KT 2000 BCFG BR FEW041 SCT230 M00/M01 Q1028=
METAR LZPP 181730Z 17001KT 3000 BR NSC M02/M03 Q1028=
METAR LZSL 181730Z 00000KT 9999 FEW010 M07/M09 Q1028=
METAR LZTT 181730Z 26004KT 9999 BKN028 M05/M06 Q1026=
METAR LZZI 181730Z 12002KT 7000 BKN035 M00/M03 Q1027=